Terminal Aerodrome Forecast
Issued by NWS Grand Forks, ND

Home | Current Version | Previous Version | Graphics & Text | Print | Product List | Glossary On
Versions: 1 2 3 4 5 6 7 8 9 10 11 12 13 14 15 16 17 18 19 20 21 22 23
193
FTUS43 KFGF 182334
TAFGFK
TAF
KGFK 182334Z 1900/1924 29008KT P6SM FEW250
     FM191200 19007KT P6SM BKN110
     FM191700 24007KT P6SM BKN250=

USA.gov is the U.S. government's official web portal to all federal, state and local government web resources and services.